createdAt,value
2019-01-17T00:00:22.855Z,3.8
2019-01-17T00:01:32.093Z,3.8
2019-01-17T00:02:41.337Z,3.7
2019-01-17T00:03:50.514Z,3.8
2019-01-17T00:04:59.736Z,3.7
2019-01-17T00:06:09.004Z,3.8
2019-01-17T00:07:18.162Z,3.7
2019-01-17T00:08:27.423Z,3.7
2019-01-17T00:09:36.652Z,3.8
2019-01-17T00:10:45.832Z,3.7
2019-01-17T00:11:55.040Z,3.7
2019-01-17T00:13:04.359Z,3.7
2019-01-17T00:14:13.475Z,3.7
2019-01-17T00:15:22.694Z,3.7
2019-01-17T00:16:31.917Z,3.7
2019-01-17T00:17:41.139Z,3.7
2019-01-17T00:18:50.376Z,3.6
2019-01-17T00:19:59.632Z,3.7
2019-01-17T00:21:08.818Z,3.6
2019-01-17T00:22:18.029Z,3.6
2019-01-17T00:23:27.288Z,3.6
2019-01-17T00:24:36.459Z,3.6
2019-01-17T00:25:45.694Z,3.7
2019-01-17T00:26:54.886Z,3.6
2019-01-17T00:28:04.105Z,3.6
2019-01-17T00:29:13.332Z,3.6
2019-01-17T00:30:22.537Z,3.6
2019-01-17T00:31:31.757Z,3.6
2019-01-17T00:32:40.975Z,3.6
2019-01-17T00:33:50.254Z,3.6
2019-01-17T00:34:59.400Z,3.6
2019-01-17T00:36:08.613Z,3.6
2019-01-17T00:37:17.836Z,3.5
2019-01-17T00:38:27.174Z,3.6
2019-01-17T00:39:36.263Z,3.5
2019-01-17T00:40:45.489Z,3.5
2019-01-17T00:41:54.710Z,3.5
2019-01-17T00:43:03.918Z,3.5
2019-01-17T00:44:13.123Z,3.5
2019-01-17T00:45:22.354Z,3.5
2019-01-17T00:46:31.552Z,3.5
2019-01-17T00:47:40.769Z,3.5
2019-01-17T00:48:49.985Z,3.5
2019-01-17T00:49:59.213Z,3.5
2019-01-17T00:51:08.432Z,3.5
2019-01-17T00:52:17.737Z,3.5
2019-01-17T00:53:26.976Z,3.5
2019-01-17T00:54:36.054Z,3.5
2019-01-17T00:55:45.278Z,3.5
2019-01-17T00:56:54.485Z,3.5
2019-01-17T00:58:03.709Z,3.5
2019-01-17T00:59:12.910Z,3.5
2019-01-17T01:00:22.146Z,3.5
2019-01-17T01:01:31.433Z,3.5
2019-01-17T01:02:40.554Z,3.5
2019-01-17T01:03:49.773Z,3.5
2019-01-17T01:04:58.983Z,3.5
2019-01-17T01:06:08.219Z,3.5
2019-01-17T01:07:17.428Z,3.6
2019-01-17T01:08:26.642Z,3.6
2019-01-17T01:09:35.846Z,3.6
2019-01-17T01:10:45.049Z,3.6
2019-01-17T01:11:54.269Z,3.6
2019-01-17T01:13:03.481Z,3.6
2019-01-17T01:14:12.688Z,3.6
2019-01-17T01:15:21.902Z,3.6
2019-01-17T01:16:31.190Z,3.6
2019-01-17T01:17:40.503Z,3.6
2019-01-17T01:18:49.555Z,3.6
2019-01-17T01:19:58.761Z,3.6
2019-01-17T01:21:07.993Z,3.6
2019-01-17T01:22:17.363Z,3.6
2019-01-17T01:23:26.414Z,3.6
2019-01-17T01:24:35.625Z,3.6
2019-01-17T01:25:44.948Z,3.6
2019-01-17T01:26:54.056Z,3.6
2019-01-17T01:28:03.264Z,3.6
2019-01-17T01:29:12.543Z,3.6
2019-01-17T01:30:21.699Z,3.6
2019-01-17T01:31:30.913Z,3.6
2019-01-17T01:32:40.128Z,3.6
2019-01-17T01:33:49.358Z,3.6
2019-01-17T01:34:58.558Z,3.6
2019-01-17T01:36:07.781Z,3.6
2019-01-17T01:37:17.006Z,3.5
2019-01-17T01:38:26.196Z,3.6
2019-01-17T01:39:35.410Z,3.6
2019-01-17T01:40:44.618Z,3.6
2019-01-17T01:41:53.866Z,3.5
2019-01-17T01:43:03.046Z,3.6
2019-01-17T01:44:12.272Z,3.5
2019-01-17T01:45:21.577Z,3.6
2019-01-17T01:46:30.784Z,3.6
2019-01-17T01:47:39.917Z,3.6
2019-01-17T01:48:49.259Z,3.5
2019-01-17T01:49:58.336Z,3.6
2019-01-17T01:51:07.610Z,3.6
2019-01-17T01:52:16.785Z,3.6
2019-01-17T01:53:25.980Z,3.6
2019-01-17T01:54:35.197Z,3.6
2019-01-17T01:55:44.406Z,3.6
2019-01-17T01:56:53.625Z,3.6
2019-01-17T01:58:02.873Z,3.6
2019-01-17T01:59:12.050Z,3.7
2019-01-17T02:00:21.436Z,3.7
2019-01-17T02:01:30.472Z,3.6
2019-01-17T02:02:39.790Z,3.7
2019-01-17T02:03:48.909Z,3.7
2019-01-17T02:04:58.135Z,3.7
2019-01-17T02:06:07.362Z,3.7
2019-01-17T02:07:16.811Z,3.7
2019-01-17T02:08:25.761Z,3.8
2019-01-17T02:09:35.002Z,3.7
2019-01-17T02:10:44.216Z,3.8
2019-01-17T02:11:53.413Z,3.8
2019-01-17T02:13:03.163Z,3.8
2019-01-17T02:14:11.871Z,3.8
2019-01-17T02:15:21.063Z,3.9
2019-01-17T02:16:30.276Z,3.9
2019-01-17T02:17:39.507Z,3.9
2019-01-17T02:18:48.710Z,3.9
2019-01-17T02:19:57.963Z,3.9
2019-01-17T02:21:07.147Z,4
2019-01-17T02:22:16.389Z,4
2019-01-17T02:23:25.687Z,4
2019-01-17T02:24:34.802Z,4
2019-01-17T02:25:44.033Z,4
2019-01-17T02:26:53.259Z,4.1
2019-01-17T02:28:02.534Z,4.1
2019-01-17T02:29:11.693Z,4.1
2019-01-17T02:30:20.909Z,4.1
2019-01-17T02:31:30.140Z,4.1
2019-01-17T02:32:39.353Z,4.2
2019-01-17T02:33:48.578Z,4.2
2019-01-17T02:34:57.798Z,4.2
2019-01-17T02:36:07.020Z,4.2
2019-01-17T02:37:16.307Z,4.2
2019-01-17T02:38:25.491Z,4.3
2019-01-17T02:39:34.692Z,4.3
2019-01-17T02:40:43.916Z,4.3
2019-01-17T02:41:53.220Z,4.3
2019-01-17T02:43:02.487Z,4.3
2019-01-17T02:44:11.644Z,4.3
2019-01-17T02:45:20.825Z,4.4
2019-01-17T02:46:30.042Z,4.4
2019-01-17T02:47:39.281Z,4.4
2019-01-17T02:48:48.528Z,4.5
2019-01-17T02:49:57.770Z,4.5
2019-01-17T02:51:06.987Z,4.5
2019-01-17T02:52:16.357Z,4.5
2019-01-17T02:53:25.438Z,4.5
2019-01-17T02:54:35.765Z,4.6
2019-01-17T02:55:43.878Z,4.6
2019-01-17T02:56:53.138Z,4.6
2019-01-17T02:58:02.392Z,4.6
2019-01-17T03:00:20.888Z,4.6
2019-01-17T03:01:30.157Z,4.6
2019-01-17T03:02:39.301Z,4.7
2019-01-17T03:03:48.605Z,4.6
2019-01-17T03:04:57.736Z,4.6
2019-01-17T03:06:06.965Z,4.7
2019-01-17T03:07:16.246Z,4.7
2019-01-17T03:08:25.448Z,4.7
2019-01-17T03:09:34.721Z,4.7
2019-01-17T03:10:43.952Z,4.7
2019-01-17T03:11:53.153Z,4.7
2019-01-17T03:13:02.437Z,4.7
2019-01-17T03:14:11.682Z,4.7
2019-01-17T03:15:20.875Z,4.7
2019-01-17T03:16:30.123Z,4.7
2019-01-17T03:17:39.365Z,4.8
2019-01-17T03:18:48.587Z,4.8
2019-01-17T03:19:57.829Z,4.8
2019-01-17T03:21:07.080Z,4.8
2019-01-17T03:22:16.348Z,4.8
2019-01-17T03:23:25.526Z,4.8
2019-01-17T03:24:34.784Z,4.8
2019-01-17T03:25:44.029Z,4.8
2019-01-17T03:26:53.348Z,4.8
2019-01-17T03:28:02.519Z,4.8
2019-01-17T03:29:11.714Z,4.8
2019-01-17T03:30:20.965Z,4.8
2019-01-17T03:31:30.219Z,4.8
2019-01-17T03:32:39.501Z,4.8
2019-01-17T03:33:48.719Z,4.8
2019-01-17T03:34:57.922Z,4.8
2019-01-17T03:36:07.204Z,4.9
2019-01-17T03:37:16.425Z,4.8
2019-01-17T03:38:25.677Z,4.9
2019-01-17T03:39:34.921Z,4.9
2019-01-17T03:40:44.185Z,4.9
2019-01-17T03:41:53.434Z,4.9
2019-01-17T03:43:02.656Z,4.9
2019-01-17T03:44:13.516Z,4.9
2019-01-17T03:45:22.744Z,4.9
2019-01-17T03:46:31.956Z,4.9
2019-01-17T03:47:41.202Z,4.9
2019-01-17T03:48:50.413Z,4.9
2019-01-17T03:49:59.688Z,4.9
2019-01-17T03:51:08.935Z,4.9
2019-01-17T03:52:18.152Z,4.9
2019-01-17T03:53:27.411Z,4.9
2019-01-17T03:54:36.691Z,4.9
2019-01-17T03:55:45.911Z,4.9
2019-01-17T03:56:55.158Z,4.8
2019-01-17T03:58:04.413Z,4.9
2019-01-17T03:59:13.634Z,4.9
2019-01-17T04:00:22.849Z,4.9
2019-01-17T04:01:32.112Z,4.9
2019-01-17T04:02:41.368Z,4.9
2019-01-17T04:03:50.642Z,4.8
2019-01-17T04:04:59.830Z,4.9
2019-01-17T04:06:09.099Z,4.8
2019-01-17T04:07:18.330Z,4.8
2019-01-17T04:08:27.557Z,4.9
2019-01-17T04:09:36.775Z,4.9
2019-01-17T04:10:46.084Z,4.9
2019-01-17T04:11:55.296Z,4.9
2019-01-17T04:13:04.517Z,4.9
2019-01-17T04:14:13.773Z,4.9
2019-01-17T04:15:23.017Z,4.9
2019-01-17T04:16:32.325Z,4.9
2019-01-17T04:17:41.646Z,4.8
2019-01-17T04:18:50.773Z,4.9
2019-01-17T04:20:00.103Z,4.9
2019-01-17T04:21:09.219Z,4.8
2019-01-17T04:22:18.469Z,4.9
2019-01-17T04:23:27.741Z,4.9
2019-01-17T04:24:36.935Z,4.9
2019-01-17T04:25:46.253Z,4.9
2019-01-17T04:26:55.460Z,4.9
2019-01-17T04:28:04.695Z,4.9
2019-01-17T04:29:13.942Z,4.9
2019-01-17T04:30:23.166Z,4.9
2019-01-17T04:31:32.439Z,4.9
2019-01-17T04:32:41.659Z,4.9
2019-01-17T04:33:50.917Z,4.9
2019-01-17T04:35:00.174Z,4.9
2019-01-17T04:36:09.402Z,4.9
2019-01-17T04:37:18.645Z,4.9
2019-01-17T04:38:27.895Z,5
2019-01-17T04:39:37.185Z,5
2019-01-17T04:40:46.374Z,5
2019-01-17T04:41:55.651Z,5
2019-01-17T04:43:04.905Z,5
2019-01-17T04:44:14.169Z,5
2019-01-17T04:45:23.385Z,5
2019-01-17T04:46:32.626Z,5
2019-01-17T04:47:41.861Z,5
2019-01-17T04:48:51.085Z,5.1
2019-01-17T04:50:00.331Z,5.1
2019-01-17T04:51:09.571Z,5.1
2019-01-17T04:52:18.814Z,5.1
2019-01-17T04:53:28.078Z,5.1
2019-01-17T04:54:38.495Z,5.2
2019-01-17T04:55:46.656Z,5.2
2019-01-17T04:56:55.824Z,5.2
2019-01-17T04:58:05.075Z,5.1
2019-01-17T04:59:14.281Z,5.2
2019-01-17T05:00:23.606Z,5.2
2019-01-17T05:01:32.831Z,5.2
2019-01-17T05:02:42.071Z,5.2
2019-01-17T05:03:51.338Z,5.2
2019-01-17T05:05:00.543Z,5.2
2019-01-17T05:06:09.807Z,5.2
2019-01-17T05:07:19.087Z,5.2
2019-01-17T05:08:28.313Z,5.2
2019-01-17T05:09:37.555Z,5.3
2019-01-17T05:10:46.785Z,5.3
2019-01-17T05:11:56.117Z,5.3
2019-01-17T05:13:05.316Z,5.3
2019-01-17T05:14:14.572Z,5.3
2019-01-17T05:15:23.834Z,5.3
2019-01-17T05:16:33.066Z,5.3
2019-01-17T05:17:42.303Z,5.3
2019-01-17T05:18:51.598Z,5.4
2019-01-17T05:20:00.832Z,5.4
2019-01-17T05:21:10.110Z,5.4
2019-01-17T05:22:19.344Z,5.5
2019-01-17T05:23:28.570Z,5.4
2019-01-17T05:24:37.838Z,5.4
2019-01-17T05:25:47.059Z,5.5
2019-01-17T05:26:56.355Z,5.5
2019-01-17T05:28:05.597Z,5.5
2019-01-17T05:29:14.863Z,5.5
2019-01-17T05:30:24.184Z,5.5
2019-01-17T05:31:33.352Z,5.6
2019-01-17T05:32:42.653Z,5.6
2019-01-17T05:33:51.944Z,5.6
2019-01-17T05:35:01.167Z,5.6
2019-01-17T05:36:10.387Z,5.6
2019-01-17T05:37:19.703Z,5.6
2019-01-17T05:38:28.915Z,5.7
2019-01-17T05:39:38.224Z,5.7
2019-01-17T05:40:47.498Z,5.7
2019-01-17T05:41:56.687Z,5.7
2019-01-17T05:43:05.933Z,5.7
2019-01-17T05:44:15.189Z,5.7
2019-01-17T05:45:24.466Z,5.7
2019-01-17T05:46:33.715Z,5.7
2019-01-17T05:47:42.969Z,5.7
2019-01-17T05:48:52.208Z,5.7
2019-01-17T05:50:01.590Z,5.7
2019-01-17T05:51:10.753Z,5.7
2019-01-17T05:52:20.026Z,5.7
2019-01-17T05:53:29.257Z,5.7
2019-01-17T05:54:38.599Z,5.7
2019-01-17T05:55:47.884Z,5.7
2019-01-17T05:56:57.076Z,5.7
2019-01-17T05:58:06.336Z,5.7
2019-01-17T05:59:15.590Z,5.7
2019-01-17T06:00:24.857Z,5.7
2019-01-17T06:01:34.129Z,5.7
2019-01-17T06:02:43.349Z,5.6
2019-01-17T06:03:52.646Z,5.6
2019-01-17T06:05:01.926Z,5.6
2019-01-17T06:06:11.161Z,5.6
2019-01-17T06:07:20.464Z,5.6
2019-01-17T06:08:29.656Z,5.6
2019-01-17T06:09:38.943Z,5.5
2019-01-17T06:10:48.210Z,5.5
2019-01-17T06:11:57.479Z,5.6
2019-01-17T06:13:06.697Z,5.6
2019-01-17T06:14:17.536Z,5.5
2019-01-17T06:15:26.768Z,5.5
2019-01-17T06:16:36.020Z,5.5
2019-01-17T06:17:45.295Z,5.5
2019-01-17T06:18:54.577Z,5.5
2019-01-17T06:20:03.812Z,5.5
2019-01-17T06:21:13.041Z,5.5
2019-01-17T06:22:22.353Z,5.5
2019-01-17T06:23:31.605Z,5.5
2019-01-17T06:24:40.971Z,5.5
2019-01-17T06:25:50.109Z,5.5
2019-01-17T06:26:59.365Z,5.5
2019-01-17T06:28:08.592Z,5.5
2019-01-17T06:29:19.474Z,5.5
2019-01-17T06:30:28.828Z,5.5
2019-01-17T06:31:38.007Z,5.5
2019-01-17T06:32:47.288Z,5.5
2019-01-17T06:33:56.475Z,5.5
2019-01-17T06:35:05.776Z,5.5
2019-01-17T06:36:15.009Z,5.5
2019-01-17T06:37:24.277Z,5.5
2019-01-17T06:38:33.552Z,5.5
2019-01-17T06:39:42.805Z,5.5
2019-01-17T06:40:52.186Z,5.5
2019-01-17T06:42:01.383Z,5.5
2019-01-17T06:43:10.595Z,5.5
2019-01-17T06:44:20.369Z,5.5
2019-01-17T06:45:29.232Z,5.5
2019-01-17T06:46:38.358Z,5.5
2019-01-17T06:47:47.604Z,5.5
2019-01-17T06:48:56.869Z,5.6
2019-01-17T06:50:06.391Z,5.5
2019-01-17T06:51:15.382Z,5.5
2019-01-17T06:52:24.634Z,5.5
2019-01-17T06:53:33.873Z,5.5
2019-01-17T06:54:43.159Z,5.6
2019-01-17T06:55:52.407Z,5.6
2019-01-17T06:57:01.683Z,5.5
2019-01-17T06:58:10.927Z,5.5
2019-01-17T06:59:20.183Z,5.5
2019-01-17T07:00:29.429Z,5.6
2019-01-17T07:01:38.687Z,5.5
2019-01-17T07:02:48.102Z,5.5
2019-01-17T07:03:57.231Z,5.6
2019-01-17T07:05:06.535Z,5.6
2019-01-17T07:06:15.788Z,5.6
2019-01-17T07:07:25.029Z,5.6
2019-01-17T07:08:34.279Z,5.5
2019-01-17T07:09:43.538Z,5.5
2019-01-17T07:10:52.788Z,5.6
2019-01-17T07:12:02.056Z,5.6
2019-01-17T07:13:11.325Z,5.5
2019-01-17T07:14:20.555Z,5.5
2019-01-17T07:15:29.861Z,5.5
2019-01-17T07:16:39.175Z,5.5
2019-01-17T07:17:48.373Z,5.4
2019-01-17T07:18:57.604Z,5.4
2019-01-17T07:20:06.873Z,5.4
2019-01-17T07:21:16.170Z,5.4
2019-01-17T07:22:25.389Z,5.4
2019-01-17T07:23:34.675Z,5.3
2019-01-17T07:24:43.956Z,5.4
2019-01-17T07:25:53.162Z,5.4
2019-01-17T07:27:02.508Z,5.3
2019-01-17T07:28:11.666Z,5.3
2019-01-17T07:29:20.983Z,5.3
2019-01-17T07:30:30.237Z,5.3
2019-01-17T07:31:39.479Z,5.3
2019-01-17T07:32:48.763Z,5.4
2019-01-17T07:33:57.972Z,5.4
2019-01-17T07:35:07.250Z,5.4
2019-01-17T07:36:16.509Z,5.4
2019-01-17T07:37:25.790Z,5.4
2019-01-17T07:38:35.083Z,5.4
2019-01-17T07:39:44.280Z,5.4
2019-01-17T07:40:53.697Z,5.4
2019-01-17T07:42:02.794Z,5.4
2019-01-17T07:43:12.078Z,5.4
2019-01-17T07:44:21.320Z,5.4
2019-01-17T07:45:30.537Z,5.4
2019-01-17T07:46:39.821Z,5.4
2019-01-17T07:47:49.079Z,5.4
2019-01-17T07:48:58.311Z,5.4
2019-01-17T07:50:07.584Z,5.5
2019-01-17T07:51:16.854Z,5.5
2019-01-17T07:52:26.093Z,5.4
2019-01-17T07:53:35.386Z,5.4
2019-01-17T07:54:44.610Z,5.4
2019-01-17T07:55:53.992Z,5.4
2019-01-17T07:57:03.190Z,5.4
2019-01-17T07:58:12.376Z,5.4
2019-01-17T07:59:21.638Z,5.4
2019-01-17T08:00:30.903Z,5.4
2019-01-17T08:01:40.247Z,5.5
2019-01-17T08:02:49.396Z,5.5
2019-01-17T08:03:58.679Z,5.5
2019-01-17T08:05:07.973Z,5.5
2019-01-17T08:06:17.270Z,5.5
2019-01-17T08:07:26.546Z,5.6
2019-01-17T08:08:35.708Z,5.5
2019-01-17T08:09:46.115Z,5.5
2019-01-17T08:10:54.241Z,5.5
2019-01-17T08:12:05.063Z,5.6
2019-01-17T08:13:12.759Z,5.6
2019-01-17T08:14:22.093Z,5.6
2019-01-17T08:15:31.333Z,5.5
2019-01-17T08:16:40.554Z,5.5
2019-01-17T08:17:49.802Z,5.5
2019-01-17T08:18:59.040Z,5.6
2019-01-17T08:20:08.299Z,5.6
2019-01-17T08:21:17.631Z,5.6
2019-01-17T08:22:26.875Z,5.5
2019-01-17T08:23:36.095Z,5.5
2019-01-17T08:24:45.368Z,5.5
2019-01-17T08:25:54.640Z,5.5
2019-01-17T08:27:03.910Z,5.6
2019-01-17T08:28:13.159Z,5.5
2019-01-17T08:29:22.416Z,5.6
2019-01-17T08:30:31.686Z,5.6
2019-01-17T08:31:41.124Z,5.6
2019-01-17T08:32:50.233Z,5.6
2019-01-17T08:33:59.473Z,5.6
2019-01-17T08:35:08.786Z,5.6
2019-01-17T08:36:18.179Z,5.6
2019-01-17T08:37:27.263Z,5.7
2019-01-17T08:38:36.553Z,5.7
2019-01-17T08:39:45.790Z,5.7
2019-01-17T08:40:55.038Z,5.7
2019-01-17T08:42:04.298Z,5.6
2019-01-17T08:43:13.563Z,5.7
2019-01-17T08:44:22.861Z,5.7
2019-01-17T08:45:32.180Z,5.7
2019-01-17T08:46:41.371Z,5.7
2019-01-17T08:47:50.742Z,5.7
2019-01-17T08:48:59.926Z,5.6
2019-01-17T08:50:09.249Z,5.7
2019-01-17T08:51:18.460Z,5.7
2019-01-17T08:52:27.748Z,5.7
2019-01-17T08:53:36.974Z,5.7
2019-01-17T08:54:46.408Z,5.7
2019-01-17T08:56:00.685Z,5.8
2019-01-17T08:57:04.809Z,5.7
2019-01-17T08:59:23.348Z,5.7
2019-01-17T09:00:32.640Z,5.8
2019-01-17T09:01:41.906Z,5.7
2019-01-17T09:02:51.127Z,5.7
2019-01-17T09:04:00.399Z,5.7
2019-01-17T09:05:09.679Z,5.7
2019-01-17T09:06:18.911Z,5.8
2019-01-17T09:07:28.221Z,5.8
2019-01-17T09:08:37.492Z,5.8
2019-01-17T09:09:46.724Z,5.8
2019-01-17T09:10:56.049Z,5.8
2019-01-17T09:12:05.326Z,5.8
2019-01-17T09:13:14.559Z,5.8
2019-01-17T09:14:23.885Z,5.8
2019-01-17T09:15:33.093Z,5.9
2019-01-17T09:16:42.354Z,5.8
2019-01-17T09:17:51.662Z,5.8
2019-01-17T09:19:00.901Z,5.8
2019-01-17T09:20:10.204Z,5.8
2019-01-17T09:21:19.503Z,5.8
2019-01-17T09:22:28.759Z,5.9
2019-01-17T09:23:38.032Z,5.8
2019-01-17T09:24:47.316Z,5.8
2019-01-17T09:25:56.558Z,5.9
2019-01-17T09:27:05.886Z,5.9
2019-01-17T09:28:15.112Z,5.9
2019-01-17T09:29:24.455Z,5.9
2019-01-17T09:30:33.671Z,5.9
2019-01-17T09:31:42.924Z,5.9
2019-01-17T09:32:52.250Z,5.9
2019-01-17T09:34:01.485Z,6
2019-01-17T09:35:10.757Z,6.1
2019-01-17T09:36:20.027Z,6
2019-01-17T09:37:29.336Z,6
2019-01-17T09:38:38.637Z,5.9
2019-01-17T09:39:47.836Z,5.9
2019-01-17T09:40:57.197Z,6
2019-01-17T09:42:06.394Z,5.9
2019-01-17T09:43:16.043Z,6
2019-01-17T09:44:25.021Z,5.9
2019-01-17T09:45:34.285Z,6
2019-01-17T09:46:43.547Z,5.9
2019-01-17T09:47:52.817Z,6
2019-01-17T09:49:02.085Z,6
2019-01-17T09:50:11.373Z,6
2019-01-17T09:51:20.733Z,6
2019-01-17T09:52:29.962Z,6
2019-01-17T09:53:39.228Z,6.1
2019-01-17T09:54:48.521Z,6
2019-01-17T09:55:57.782Z,6.1
2019-01-17T09:57:07.114Z,6.1
2019-01-17T09:58:16.411Z,6
2019-01-17T09:59:25.722Z,6.1
2019-01-17T10:00:35.123Z,6
2019-01-17T10:01:44.207Z,6
2019-01-17T10:02:53.500Z,6
2019-01-17T10:04:02.781Z,6.1
2019-01-17T10:05:12.047Z,6.3
2019-01-17T10:06:21.425Z,6.2
2019-01-17T10:07:30.642Z,6.1
2019-01-17T10:08:39.880Z,6.1
2019-01-17T10:09:49.245Z,6.2
2019-01-17T10:10:58.532Z,6.1
2019-01-17T10:12:07.797Z,6.1
2019-01-17T10:13:17.044Z,6.1
2019-01-17T10:14:26.362Z,6.1
2019-01-17T10:15:35.635Z,6.2
2019-01-17T10:16:45.181Z,6.3
2019-01-17T10:17:54.217Z,6.2
2019-01-17T10:19:03.486Z,6.2
2019-01-17T10:20:12.801Z,6.1
2019-01-17T10:21:22.076Z,6.2
2019-01-17T10:22:31.389Z,6.3
2019-01-17T10:23:40.755Z,6.3
2019-01-17T10:24:49.991Z,6.3
2019-01-17T10:25:59.227Z,6.3
2019-01-17T10:27:08.552Z,6.3
2019-01-17T10:28:17.831Z,6.3
2019-01-17T10:29:27.129Z,6.4
2019-01-17T10:30:36.535Z,6.5
2019-01-17T10:31:45.732Z,6.5
2019-01-17T10:32:55.039Z,6.5
2019-01-17T10:34:04.424Z,6.5
2019-01-17T10:35:13.604Z,6.4
2019-01-17T10:36:22.899Z,6.4
2019-01-17T10:37:32.190Z,6.4
2019-01-17T10:38:41.679Z,6.5
2019-01-17T10:39:50.817Z,6.4
2019-01-17T10:41:00.096Z,6.4
2019-01-17T10:42:09.399Z,6.3
2019-01-17T10:43:18.692Z,6.4
2019-01-17T10:44:27.978Z,6.4
2019-01-17T10:45:37.299Z,6.4
2019-01-17T10:46:46.840Z,6.4
2019-01-17T10:48:00.140Z,6.4
2019-01-17T10:49:05.253Z,6.5
2019-01-17T10:50:14.501Z,6.5
2019-01-17T10:51:23.767Z,6.4
2019-01-17T10:52:33.065Z,6.5
2019-01-17T10:53:42.489Z,6.4
2019-01-17T10:54:51.645Z,6.6
2019-01-17T10:56:00.971Z,6.6
2019-01-17T10:57:10.208Z,6.7
2019-01-17T10:58:19.506Z,6.5
2019-01-17T10:59:28.817Z,6.4
2019-01-17T11:00:38.109Z,6.4
2019-01-17T11:01:47.430Z,6.4
2019-01-17T11:02:56.748Z,6.4
2019-01-17T11:04:06.000Z,6.4
2019-01-17T11:05:15.297Z,6.4
2019-01-17T11:06:24.610Z,6.4
2019-01-17T11:07:33.883Z,6.3
2019-01-17T11:08:43.179Z,6.3
2019-01-17T11:09:52.479Z,6.2
2019-01-17T11:11:01.774Z,6.3
2019-01-17T11:12:11.086Z,6.3
2019-01-17T11:13:20.361Z,6.3
2019-01-17T11:14:29.657Z,6.4
2019-01-17T11:15:38.960Z,6.4
2019-01-17T11:16:48.283Z,6.3
2019-01-17T11:17:57.716Z,6.5
2019-01-17T11:19:06.847Z,6.6
2019-01-17T11:20:16.240Z,6.5
2019-01-17T11:21:25.479Z,6.5
2019-01-17T11:22:34.737Z,6.5
2019-01-17T11:23:44.054Z,6.5
2019-01-17T11:24:53.421Z,6.6
2019-01-17T11:26:02.689Z,6.6
2019-01-17T11:27:11.951Z,6.7
2019-01-17T11:28:21.257Z,6.7
2019-01-17T11:29:30.697Z,6.6
2019-01-17T11:30:39.912Z,6.7
2019-01-17T11:31:49.146Z,6.6
2019-01-17T11:32:58.455Z,6.7
2019-01-17T11:34:07.896Z,6.6
2019-01-17T11:35:17.079Z,6.6
2019-01-17T11:36:26.368Z,6.6
2019-01-17T11:37:35.666Z,6.6
2019-01-17T11:38:44.976Z,6.6
2019-01-17T11:39:54.278Z,6.6
2019-01-17T11:41:03.609Z,6.5
2019-01-17T11:42:12.876Z,6.6
2019-01-17T11:43:22.183Z,6.6
2019-01-17T11:44:31.488Z,6.5
2019-01-17T11:45:40.868Z,6.6
2019-01-17T11:46:50.078Z,6.5
2019-01-17T11:47:59.373Z,6.5
2019-01-17T11:49:08.699Z,6.5
2019-01-17T11:50:18.009Z,6.4
2019-01-17T11:51:27.270Z,6.6
2019-01-17T11:52:36.571Z,6.5
2019-01-17T11:53:45.855Z,6.5
2019-01-17T11:54:55.165Z,6.6
2019-01-17T11:56:04.459Z,6.5
2019-01-17T11:57:13.745Z,6.5
2019-01-17T11:58:23.094Z,6.5
2019-01-17T11:59:32.437Z,6.5
2019-01-17T12:00:41.631Z,6.5
2019-01-17T12:01:50.944Z,6.5
2019-01-17T12:03:00.247Z,6.5
2019-01-17T12:04:09.512Z,6.5
2019-01-17T12:05:18.802Z,6.5
2019-01-17T12:06:28.185Z,6.4
2019-01-17T12:07:37.398Z,6.4
2019-01-17T12:08:46.702Z,6.4
2019-01-17T12:09:55.982Z,6.4
2019-01-17T12:11:05.290Z,6.5
2019-01-17T12:12:14.571Z,6.5
2019-01-17T12:13:23.877Z,6.5
2019-01-17T12:14:33.164Z,6.5
2019-01-17T12:15:42.510Z,6.5
2019-01-17T12:16:51.763Z,6.5
2019-01-17T12:18:01.049Z,6.5
2019-01-17T12:19:10.356Z,6.6
2019-01-17T12:20:19.675Z,6.5
2019-01-17T12:21:28.975Z,6.6
2019-01-17T12:22:38.281Z,6.6
2019-01-17T12:23:47.539Z,6.7
2019-01-17T12:24:56.837Z,6.7
2019-01-17T12:26:06.156Z,6.5
2019-01-17T12:27:15.431Z,6.6
2019-01-17T12:28:24.747Z,6.6
2019-01-17T12:29:34.059Z,6.8
2019-01-17T12:30:43.337Z,6.6
2019-01-17T12:31:52.685Z,6.7
2019-01-17T12:33:01.953Z,6.8
2019-01-17T12:34:11.241Z,7.1
2019-01-17T12:35:20.543Z,7
2019-01-17T12:36:29.875Z,6.7
2019-01-17T12:37:39.270Z,6.8
2019-01-17T12:38:48.457Z,6.8
2019-01-17T12:39:57.769Z,6.8
2019-01-17T12:41:07.131Z,7.1
2019-01-17T12:42:16.459Z,7.1
2019-01-17T12:43:25.783Z,6.9
2019-01-17T12:44:34.996Z,7.2
2019-01-17T12:45:44.304Z,7.2
2019-01-17T12:46:53.615Z,6.9
2019-01-17T12:48:03.049Z,7.1
2019-01-17T12:49:12.219Z,7.3
2019-01-17T12:50:21.534Z,7.2
2019-01-17T12:51:30.839Z,7
2019-01-17T12:52:40.154Z,7.3
2019-01-17T12:53:49.467Z,7.3
2019-01-17T12:54:58.854Z,7.4
2019-01-17T12:56:08.147Z,7.7
2019-01-17T12:57:17.435Z,7.7
2019-01-17T12:58:26.735Z,7.6
2019-01-17T12:59:36.034Z,7.6
2019-01-17T13:00:45.330Z,7.6
2019-01-17T13:01:54.655Z,7.7
2019-01-17T13:03:03.970Z,7.6
2019-01-17T13:04:13.290Z,7.6
2019-01-17T13:05:22.602Z,7.5
2019-01-17T13:06:31.910Z,7.4
2019-01-17T13:07:41.248Z,7.6
2019-01-17T13:08:50.556Z,7.6
2019-01-17T13:09:59.869Z,7.6
2019-01-17T13:11:09.179Z,7.8
2019-01-17T13:12:18.545Z,7.6
2019-01-17T13:13:27.807Z,7.2
2019-01-17T13:14:37.140Z,7.3
2019-01-17T13:15:46.527Z,7.6
2019-01-17T13:16:55.964Z,7.6
2019-01-17T13:18:05.087Z,7.4
2019-01-17T13:19:14.393Z,7.4
2019-01-17T13:20:23.734Z,7.4
2019-01-17T13:21:33.164Z,7.5
2019-01-17T13:22:42.379Z,7.8
2019-01-17T13:23:51.676Z,7.7
2019-01-17T13:25:01.001Z,7.7
2019-01-17T13:26:10.330Z,7.9
2019-01-17T13:27:19.658Z,7.8
2019-01-17T13:28:28.991Z,7.6
2019-01-17T13:29:38.280Z,7.9
2019-01-17T13:30:47.605Z,7.8
2019-01-17T13:31:57.050Z,8
2019-01-17T13:33:06.251Z,8
2019-01-17T13:34:15.583Z,7.7
2019-01-17T13:35:24.916Z,7.7
2019-01-17T13:36:40.082Z,7.8
2019-01-17T13:37:43.574Z,7.9
2019-01-17T13:38:52.881Z,7.8
2019-01-17T13:40:02.195Z,7.8
2019-01-17T13:41:11.511Z,7.5
2019-01-17T13:42:21.000Z,7.6
2019-01-17T13:43:30.181Z,7.7
2019-01-17T13:44:39.542Z,7.6
2019-01-17T13:45:48.813Z,7.6
2019-01-17T13:46:58.171Z,7.5
2019-01-17T13:48:07.653Z,7.5
2019-01-17T13:49:16.765Z,7.3
2019-01-17T13:50:26.109Z,7.3
2019-01-17T13:51:35.408Z,7.3
2019-01-17T13:52:44.719Z,7.2
2019-01-17T13:53:54.034Z,7.3
2019-01-17T13:55:03.386Z,7.4
2019-01-17T13:56:12.679Z,7.4
2019-01-17T13:57:21.995Z,7.3
2019-01-17T13:58:31.497Z,7.4
2019-01-17T13:59:40.714Z,7.3
2019-01-17T14:00:49.926Z,7.3
2019-01-17T14:01:59.262Z,7.3
2019-01-17T14:03:08.548Z,7.3
2019-01-17T14:04:17.862Z,7.3
2019-01-17T14:05:27.259Z,7.3
2019-01-17T14:06:36.487Z,7.3
2019-01-17T14:07:45.819Z,7.3
2019-01-17T14:08:55.145Z,7.2
2019-01-17T14:10:04.693Z,7.3
2019-01-17T14:11:13.732Z,7.5
2019-01-17T14:12:23.059Z,7.6
2019-01-17T14:13:32.374Z,7.6
2019-01-17T14:14:41.672Z,7.4
2019-01-17T14:15:51.011Z,7.4
2019-01-17T14:17:00.293Z,7.4
2019-01-17T14:18:09.622Z,7.4
2019-01-17T14:19:18.938Z,7.4
2019-01-17T14:20:28.265Z,7.5
2019-01-17T14:21:37.589Z,7.5
2019-01-17T14:22:46.886Z,7.5
2019-01-17T14:23:56.179Z,7.4
2019-01-17T14:25:05.502Z,7.4
2019-01-17T14:26:14.806Z,7.5
2019-01-17T14:27:24.129Z,7.5
2019-01-17T14:28:33.442Z,7.4
2019-01-17T14:29:42.767Z,7.4
2019-01-17T14:30:52.074Z,7.5
2019-01-17T14:32:01.383Z,7.5
2019-01-17T14:33:10.706Z,7.5
2019-01-17T14:34:20.041Z,7.5
2019-01-17T14:35:29.332Z,7.5
2019-01-17T14:36:38.673Z,7.6
2019-01-17T14:37:47.963Z,7.5
2019-01-17T14:38:57.299Z,7.6
2019-01-17T14:40:06.606Z,7.6
2019-01-17T14:41:15.941Z,7.5
2019-01-17T14:42:25.236Z,7.5
2019-01-17T14:43:34.553Z,7.5
2019-01-17T14:44:43.872Z,7.4
2019-01-17T14:45:53.180Z,7.5
2019-01-17T14:47:02.587Z,7.5
2019-01-17T14:48:11.817Z,7.5
2019-01-17T14:49:21.137Z,7.5
2019-01-17T14:50:30.440Z,7.5
2019-01-17T14:51:39.755Z,7.3
2019-01-17T14:52:49.060Z,7.4
2019-01-17T14:53:58.391Z,7.3
2019-01-17T14:55:07.705Z,7.2
2019-01-17T14:56:17.006Z,7.2
2019-01-17T14:57:26.318Z,7.2
2019-01-17T14:58:35.631Z,7.2
2019-01-17T14:59:44.943Z,7.1
2019-01-17T15:00:54.278Z,7
2019-01-17T15:02:03.584Z,7
2019-01-17T15:03:12.868Z,6.9
2019-01-17T15:04:22.172Z,6.9
2019-01-17T15:05:31.508Z,6.9
2019-01-17T15:06:40.865Z,6.9
2019-01-17T15:07:50.085Z,6.9
2019-01-17T15:08:59.443Z,6.9
2019-01-17T15:10:08.692Z,6.9
2019-01-17T15:11:18.010Z,6.9
2019-01-17T15:12:27.303Z,6.8
2019-01-17T15:13:36.599Z,6.8
2019-01-17T15:14:45.949Z,6.8
2019-01-17T15:15:55.318Z,6.7
2019-01-17T15:17:04.491Z,6.7
2019-01-17T15:18:13.829Z,6.7
2019-01-17T15:19:23.087Z,6.7
2019-01-17T15:20:32.400Z,6.7
2019-01-17T15:21:41.760Z,6.6
2019-01-17T15:22:50.975Z,6.6
2019-01-17T15:24:00.299Z,6.6
2019-01-17T15:25:09.563Z,6.5
2019-01-17T15:26:18.843Z,6.5
2019-01-17T15:27:28.132Z,6.5
2019-01-17T15:28:37.430Z,6.5
2019-01-17T15:29:47.122Z,6.5
2019-01-17T15:30:55.991Z,6.5
2019-01-17T15:32:05.315Z,6.5
2019-01-17T15:33:14.565Z,6.5
2019-01-17T15:34:23.943Z,6.5
2019-01-17T15:35:33.149Z,6.4
2019-01-17T15:36:42.422Z,6.4
2019-01-17T15:37:51.708Z,6.4
2019-01-17T15:39:00.990Z,6.4
2019-01-17T15:40:10.284Z,6.3
2019-01-17T15:41:19.563Z,6.3
2019-01-17T15:42:28.865Z,6.3
2019-01-17T15:43:38.132Z,6.3
2019-01-17T15:44:47.504Z,6.3
2019-01-17T15:45:56.708Z,6.3
2019-01-17T15:47:05.980Z,6.3
2019-01-17T15:48:15.647Z,6.3
2019-01-17T15:49:24.573Z,6.3
2019-01-17T15:50:33.811Z,6.3
2019-01-17T15:51:43.114Z,6.3
2019-01-17T15:52:52.370Z,6.2
2019-01-17T15:54:01.663Z,6.2
2019-01-17T15:55:10.925Z,6.2
2019-01-17T15:56:20.203Z,6.2
2019-01-17T15:57:33.853Z,6.1
2019-01-17T15:58:38.754Z,6.1